createdAt,value
2023-03-14T00:00:36.440Z,923.03
2023-03-14T00:01:36.664Z,923.05
2023-03-14T00:02:37.114Z,923.11
2023-03-14T00:03:37.517Z,923.15
2023-03-14T00:04:38.281Z,923.18
2023-03-14T00:05:38.832Z,923.15
2023-03-14T00:06:39.148Z,923.13
2023-03-14T00:07:40.096Z,923.11
2023-03-14T00:08:41.004Z,923.11
2023-03-14T00:09:41.652Z,923.11
2023-03-14T00:10:42.052Z,923.08
2023-03-14T00:11:42.546Z,923.08
2023-03-14T00:12:43.234Z,923.12
2023-03-14T00:13:44.255Z,923.17
2023-03-14T00:14:44.427Z,923.21
2023-03-14T00:15:45.015Z,923.18
2023-03-14T00:16:45.324Z,923.19
2023-03-14T00:17:45.558Z,923.2
2023-03-14T00:18:46.517Z,923.2
2023-03-14T00:19:46.753Z,923.18
2023-03-14T00:20:46.998Z,923.15
2023-03-14T00:21:47.641Z,923.15
2023-03-14T00:22:48.187Z,923.18
2023-03-14T00:23:48.687Z,923.15
2023-03-14T00:24:48.983Z,923.18
2023-03-14T00:25:49.616Z,923.11
2023-03-14T00:26:49.860Z,923.15
2023-03-14T00:27:50.065Z,923.18
2023-03-14T00:28:51.010Z,923.18
2023-03-14T00:29:51.248Z,923.15
2023-03-14T00:30:51.812Z,923.13
2023-03-14T00:31:52.019Z,923.18
2023-03-14T00:32:52.763Z,923.19
2023-03-14T00:33:53.303Z,923.19
2023-03-14T00:34:53.684Z,923.27
2023-03-14T00:35:53.965Z,923.25
2023-03-14T00:36:54.596Z,923.29
2023-03-14T00:37:55.323Z,923.32
2023-03-14T00:38:56.009Z,923.33
2023-03-14T00:39:56.368Z,923.39
2023-03-14T00:40:57.331Z,923.42
2023-03-14T00:41:58.274Z,923.44
2023-03-14T00:42:58.465Z,923.46
2023-03-14T00:43:58.673Z,923.46
2023-03-14T00:44:59.688Z,923.42
2023-03-14T00:45:59.900Z,923.41
2023-03-14T00:47:00.696Z,923.45
2023-03-14T00:48:00.969Z,923.45
2023-03-14T00:49:01.920Z,923.48
2023-03-14T00:50:02.885Z,923.5
2023-03-14T00:51:03.547Z,923.48
2023-03-14T00:52:04.138Z,923.49
2023-03-14T00:53:05.108Z,923.44
2023-03-14T00:54:06.030Z,923.43
2023-03-14T00:55:07.131Z,923.45
2023-03-14T00:56:07.445Z,923.44
2023-03-14T00:57:07.690Z,923.44
2023-03-14T00:58:07.909Z,923.48
2023-03-14T00:59:08.118Z,923.47
2023-03-14T01:00:08.635Z,923.46
2023-03-14T01:01:09.560Z,923.45
2023-03-14T01:02:10.087Z,923.46
2023-03-14T01:03:10.880Z,923.51
2023-03-14T01:04:11.689Z,923.5
2023-03-14T01:05:12.789Z,923.51
2023-03-14T01:06:13.060Z,923.48
2023-03-14T01:07:14.056Z,923.52
2023-03-14T01:08:14.576Z,923.53
2023-03-14T01:09:14.806Z,923.49
2023-03-14T01:10:15.315Z,923.48
2023-03-14T01:11:15.944Z,923.51
2023-03-14T01:12:16.659Z,923.48
2023-03-14T01:13:17.636Z,923.49
2023-03-14T01:14:17.860Z,923.5
2023-03-14T01:15:18.218Z,923.44
2023-03-14T01:16:18.737Z,923.56
2023-03-14T01:17:19.124Z,923.63
2023-03-14T01:18:19.335Z,923.6
2023-03-14T01:19:19.660Z,923.56
2023-03-14T01:20:20.456Z,923.54
2023-03-14T01:21:21.414Z,923.54
2023-03-14T01:22:22.043Z,923.57
2023-03-14T01:23:22.982Z,923.58
2023-03-14T01:24:23.610Z,923.62
2023-03-14T01:25:24.331Z,923.7
2023-03-14T01:26:25.273Z,923.71
2023-03-14T01:27:25.542Z,923.8
2023-03-14T01:28:26.478Z,923.8
2023-03-14T01:29:27.407Z,923.86
2023-03-14T01:30:28.328Z,923.81
2023-03-14T01:31:28.585Z,923.82
2023-03-14T01:32:28.955Z,923.8
2023-03-14T01:33:29.157Z,923.78
2023-03-14T01:34:29.380Z,923.76
2023-03-14T01:35:30.494Z,923.77
2023-03-14T01:36:31.871Z,923.74
2023-03-14T01:37:30.949Z,923.75
2023-03-14T01:38:31.186Z,923.69
2023-03-14T01:39:31.902Z,923.78
2023-03-14T01:40:32.391Z,923.74
2023-03-14T01:41:32.588Z,923.74
2023-03-14T01:42:32.836Z,923.71
2023-03-14T01:43:33.322Z,923.68
2023-03-14T01:44:33.803Z,923.69
2023-03-14T01:45:34.823Z,923.63
2023-03-14T01:46:35.561Z,923.69
2023-03-14T01:47:35.796Z,923.77
2023-03-14T01:48:36.291Z,923.73
2023-03-14T01:49:36.975Z,923.67
2023-03-14T01:50:37.760Z,923.78
2023-03-14T01:51:38.027Z,923.73
2023-03-14T01:52:38.701Z,923.74
2023-03-14T01:53:39.193Z,923.8
2023-03-14T01:54:39.400Z,923.72
2023-03-14T01:55:40.447Z,923.76
2023-03-14T01:56:41.382Z,923.78
2023-03-14T01:57:42.309Z,923.84
2023-03-14T01:58:42.544Z,923.8
2023-03-14T01:59:42.769Z,923.79
2023-03-14T02:00:43.063Z,923.77
2023-03-14T02:01:43.641Z,923.8
2023-03-14T02:02:43.840Z,923.83
2023-03-14T02:03:44.081Z,923.75
2023-03-14T02:04:44.332Z,923.82
2023-03-14T02:05:44.682Z,923.78
2023-03-14T02:06:45.644Z,923.7
2023-03-14T02:07:46.237Z,923.68
2023-03-14T02:08:46.947Z,923.74
2023-03-14T02:09:47.166Z,923.81
2023-03-14T02:10:47.400Z,923.74
2023-03-14T02:11:48.383Z,923.75
2023-03-14T02:12:48.574Z,923.63
2023-03-14T02:13:49.518Z,923.77
2023-03-14T02:14:49.733Z,923.8
2023-03-14T02:15:50.404Z,923.88
2023-03-14T02:16:50.727Z,923.86
2023-03-14T02:17:50.970Z,923.75
2023-03-14T02:18:51.181Z,923.9
2023-03-14T02:19:51.714Z,923.69
2023-03-14T02:20:52.363Z,923.62
2023-03-14T02:21:52.629Z,923.79
2023-03-14T02:22:53.199Z,923.89
2023-03-14T02:23:53.871Z,923.91
2023-03-14T02:24:54.792Z,923.9
2023-03-14T02:25:55.544Z,923.88
2023-03-14T02:26:55.629Z,923.77
2023-03-14T02:27:56.271Z,923.76
2023-03-14T02:28:56.467Z,923.8
2023-03-14T02:29:56.657Z,923.61
2023-03-14T02:30:56.883Z,923.73
2023-03-14T02:31:57.829Z,923.58
2023-03-14T02:32:58.051Z,923.63
2023-03-14T02:33:58.681Z,923.73
2023-03-14T02:34:59.321Z,923.81
2023-03-14T02:35:59.759Z,923.83
2023-03-14T02:37:00.609Z,923.75
2023-03-14T02:38:00.871Z,923.78
2023-03-14T02:39:01.795Z,923.74
2023-03-14T02:40:02.013Z,923.73
2023-03-14T02:41:02.942Z,923.68
2023-03-14T02:42:03.580Z,923.66
2023-03-14T02:43:04.067Z,923.69
2023-03-14T02:44:04.300Z,923.63
2023-03-14T02:45:04.998Z,923.69
2023-03-14T02:46:05.362Z,923.7
2023-03-14T02:47:05.734Z,923.73
2023-03-14T02:48:05.940Z,923.7
2023-03-14T02:49:06.852Z,923.68
2023-03-14T02:50:07.928Z,923.65
2023-03-14T02:51:08.164Z,923.68
2023-03-14T02:52:08.432Z,923.66
2023-03-14T02:53:08.749Z,923.6
2023-03-14T02:54:08.955Z,923.51
2023-03-14T02:55:09.154Z,923.44
2023-03-14T02:56:10.187Z,923.44
2023-03-14T02:57:10.416Z,923.39
2023-03-14T02:58:11.097Z,923.39
2023-03-14T02:59:11.315Z,923.36
2023-03-14T03:00:12.035Z,923.37
2023-03-14T03:01:13.006Z,923.3
2023-03-14T03:02:13.178Z,923.15
2023-03-14T03:03:13.867Z,923.1
2023-03-14T03:04:14.480Z,922.98
2023-03-14T03:05:15.417Z,922.96
2023-03-14T03:06:15.916Z,922.97
2023-03-14T03:07:16.443Z,922.94
2023-03-14T03:08:17.092Z,922.91
2023-03-14T03:09:18.045Z,922.88
2023-03-14T03:10:18.968Z,922.81
2023-03-14T03:11:19.462Z,922.83
2023-03-14T03:12:19.681Z,922.81
2023-03-14T03:13:19.893Z,922.73
2023-03-14T03:14:20.820Z,922.64
2023-03-14T03:15:21.758Z,922.54
2023-03-14T03:16:22.347Z,922.44
2023-03-14T03:17:22.889Z,922.46
2023-03-14T03:18:23.842Z,922.4
2023-03-14T03:19:24.765Z,922.4
2023-03-14T03:20:25.275Z,922.36
2023-03-14T03:21:26.322Z,922.44
2023-03-14T03:22:27.057Z,922.45
2023-03-14T03:23:27.391Z,922.45
2023-03-14T03:24:28.120Z,922.38
2023-03-14T03:25:28.756Z,922.37
2023-03-14T03:26:29.384Z,922.32
2023-03-14T03:27:29.598Z,922.26
2023-03-14T03:28:29.806Z,922.3
2023-03-14T03:29:30.291Z,922.3
2023-03-14T03:30:31.221Z,922.31
2023-03-14T03:31:31.438Z,922.37
2023-03-14T03:32:32.377Z,922.38
2023-03-14T03:33:32.654Z,922.39
2023-03-14T03:34:32.849Z,922.31
2023-03-14T03:35:33.103Z,922.35
2023-03-14T03:36:33.462Z,922.34
2023-03-14T03:37:33.832Z,922.42
2023-03-14T03:38:34.379Z,922.45
2023-03-14T03:39:34.688Z,922.47
2023-03-14T03:40:34.957Z,922.51
2023-03-14T03:41:35.903Z,922.53
2023-03-14T03:42:36.551Z,922.5
2023-03-14T03:43:37.477Z,922.53
2023-03-14T03:44:38.124Z,922.58
2023-03-14T03:45:39.059Z,922.59
2023-03-14T03:46:39.293Z,922.68
2023-03-14T03:47:39.651Z,922.7
2023-03-14T03:48:40.281Z,922.75
2023-03-14T03:49:40.490Z,922.72
2023-03-14T03:50:40.991Z,922.7
2023-03-14T03:51:41.953Z,922.72
2023-03-14T03:52:42.184Z,922.75
2023-03-14T03:53:43.200Z,922.74
2023-03-14T03:54:44.125Z,922.73
2023-03-14T03:55:44.782Z,922.71
2023-03-14T03:56:45.824Z,922.75
2023-03-14T03:57:46.462Z,922.71
2023-03-14T03:58:46.969Z,922.68
2023-03-14T03:59:47.289Z,922.65
2023-03-14T04:00:47.504Z,922.75
2023-03-14T04:01:48.037Z,922.74
2023-03-14T04:02:48.978Z,922.71
2023-03-14T04:03:49.988Z,922.65
2023-03-14T04:04:50.438Z,922.65
2023-03-14T04:05:51.216Z,922.65
2023-03-14T04:06:51.686Z,922.62
2023-03-14T04:07:51.926Z,922.58
2023-03-14T04:08:52.481Z,922.48
2023-03-14T04:09:52.759Z,922.43
2023-03-14T04:10:53.430Z,922.35
2023-03-14T04:11:54.349Z,922.33
2023-03-14T04:12:54.569Z,922.32
2023-03-14T04:13:55.228Z,922.28
2023-03-14T04:14:55.437Z,922.23
2023-03-14T04:15:55.978Z,922.16
2023-03-14T04:16:56.377Z,922.12
2023-03-14T04:17:57.021Z,922.08
2023-03-14T04:18:57.668Z,922.01
2023-03-14T04:19:58.171Z,922.01
2023-03-14T04:20:58.809Z,922.04
2023-03-14T04:21:59.060Z,922.06
2023-03-14T04:22:59.580Z,922.07
2023-03-14T04:23:59.866Z,922.03
2023-03-14T04:25:00.114Z,922.03
2023-03-14T04:26:01.038Z,922.02
2023-03-14T04:27:01.757Z,922.02
2023-03-14T04:28:02.264Z,922.07
2023-03-14T04:29:02.773Z,922.1
2023-03-14T04:30:03.269Z,922.12
2023-03-14T04:31:03.505Z,922.13
2023-03-14T04:32:03.930Z,922.06
2023-03-14T04:33:04.946Z,922.02
2023-03-14T04:34:05.444Z,922.01
2023-03-14T04:35:06.386Z,921.93
2023-03-14T04:36:07.083Z,921.87
2023-03-14T04:37:08.035Z,921.76
2023-03-14T04:38:08.660Z,921.73
2023-03-14T04:39:09.061Z,921.7
2023-03-14T04:40:10.008Z,921.72
2023-03-14T04:41:10.292Z,921.69
2023-03-14T04:42:10.968Z,921.69
2023-03-14T04:43:11.921Z,921.77
2023-03-14T04:44:12.917Z,921.72
2023-03-14T04:45:13.552Z,921.72
2023-03-14T04:46:14.569Z,921.66
2023-03-14T04:47:14.808Z,921.71
2023-03-14T04:48:15.123Z,921.75
2023-03-14T04:49:15.352Z,921.71
2023-03-14T04:50:15.891Z,921.76
2023-03-14T04:51:16.821Z,921.69
2023-03-14T04:52:17.492Z,921.6
2023-03-14T04:53:18.424Z,921.6
2023-03-14T04:54:18.927Z,921.52
2023-03-14T04:55:19.851Z,921.48
2023-03-14T04:56:20.862Z,921.43
2023-03-14T04:57:21.908Z,921.4
2023-03-14T04:58:22.886Z,921.36
2023-03-14T04:59:23.816Z,921.31
2023-03-14T05:00:24.175Z,921.28
2023-03-14T05:01:24.715Z,921.3
2023-03-14T05:02:25.242Z,921.26
2023-03-14T05:03:25.844Z,921.26
2023-03-14T05:04:26.127Z,921.26
2023-03-14T05:05:27.077Z,921.27
2023-03-14T05:06:27.985Z,921.28
2023-03-14T05:07:29.035Z,921.26
2023-03-14T05:08:30.009Z,921.25
2023-03-14T05:09:30.333Z,921.24
2023-03-14T05:10:30.951Z,921.31
2023-03-14T05:11:31.164Z,921.39
2023-03-14T05:12:31.396Z,921.38
2023-03-14T05:13:32.352Z,921.37
2023-03-14T05:14:33.020Z,921.43
2023-03-14T05:15:33.542Z,921.38
2023-03-14T05:16:34.330Z,921.31
2023-03-14T05:17:34.886Z,921.21
2023-03-14T05:18:35.562Z,921.14
2023-03-14T05:19:36.573Z,921.16
2023-03-14T05:20:37.080Z,921.21
2023-03-14T05:21:37.291Z,921.18
2023-03-14T05:22:38.240Z,921.21
2023-03-14T05:23:38.776Z,921.18
2023-03-14T05:24:39.112Z,921.19
2023-03-14T05:25:40.133Z,921.2
2023-03-14T05:26:40.638Z,921.2
2023-03-14T05:27:41.677Z,921.13
2023-03-14T05:28:41.867Z,921.08
2023-03-14T05:29:42.364Z,921.01
2023-03-14T05:30:42.999Z,921
2023-03-14T05:31:43.557Z,921.03
2023-03-14T05:32:43.689Z,920.95
2023-03-14T05:33:44.285Z,920.96
2023-03-14T05:34:44.498Z,920.99
2023-03-14T05:35:45.449Z,920.96
2023-03-14T05:36:45.652Z,920.92
2023-03-14T05:37:46.473Z,920.82
2023-03-14T05:38:47.019Z,920.76
2023-03-14T05:39:47.738Z,920.76
2023-03-14T05:40:48.044Z,920.74
2023-03-14T05:41:48.683Z,920.82
2023-03-14T05:42:49.621Z,920.84
2023-03-14T05:43:50.113Z,920.86
2023-03-14T05:44:51.040Z,920.79
2023-03-14T05:45:51.320Z,920.79
2023-03-14T05:46:52.266Z,920.72
2023-03-14T05:47:52.824Z,920.69
2023-03-14T05:48:53.041Z,920.73
2023-03-14T05:49:53.744Z,920.78
2023-03-14T05:50:54.460Z,920.79
2023-03-14T05:51:55.405Z,920.81
2023-03-14T05:52:56.142Z,920.84
2023-03-14T05:53:56.649Z,920.83
2023-03-14T05:54:57.401Z,920.89
2023-03-14T05:55:58.285Z,920.92
2023-03-14T05:56:58.261Z,920.91
2023-03-14T05:57:58.590Z,920.87
2023-03-14T05:58:58.872Z,920.92
2023-03-14T05:59:59.795Z,920.92
2023-03-14T06:01:00.000Z,920.87
2023-03-14T06:02:00.706Z,920.78
2023-03-14T06:03:01.751Z,920.75
2023-03-14T06:04:02.774Z,920.78
2023-03-14T06:05:03.708Z,920.7
2023-03-14T06:06:03.916Z,920.73
2023-03-14T06:07:04.842Z,920.65
2023-03-14T06:08:05.456Z,920.62
2023-03-14T06:09:05.857Z,920.61
2023-03-14T06:10:06.645Z,920.59
2023-03-14T06:11:07.582Z,920.61
2023-03-14T06:12:08.228Z,920.58
2023-03-14T06:13:08.462Z,920.49
2023-03-14T06:14:09.396Z,920.48
2023-03-14T06:15:09.630Z,920.37
2023-03-14T06:16:09.880Z,920.33
2023-03-14T06:17:10.764Z,920.29
2023-03-14T06:18:11.618Z,920.28
2023-03-14T06:19:11.832Z,920.28
2023-03-14T06:20:12.574Z,920.19
2023-03-14T06:21:13.220Z,920.17
2023-03-14T06:22:14.111Z,920.18
2023-03-14T06:23:15.189Z,920.17
2023-03-14T06:24:15.497Z,920.15
2023-03-14T06:25:16.058Z,920.06
2023-03-14T06:26:16.979Z,920.12
2023-03-14T06:27:17.192Z,920.18
2023-03-14T06:28:18.175Z,920.27
2023-03-14T06:29:18.746Z,920.31
2023-03-14T06:30:19.660Z,920.36
2023-03-14T06:31:20.039Z,920.35
2023-03-14T06:32:20.568Z,920.37
2023-03-14T06:33:20.712Z,920.45
2023-03-14T06:34:21.782Z,920.49
2023-03-14T06:35:22.027Z,920.53
2023-03-14T06:36:22.815Z,920.5
2023-03-14T06:37:23.749Z,920.53
2023-03-14T06:38:24.835Z,920.53
2023-03-14T06:39:25.355Z,920.57
2023-03-14T06:40:25.816Z,920.59
2023-03-14T06:41:26.764Z,920.62
2023-03-14T06:42:27.679Z,920.64
2023-03-14T06:43:28.605Z,920.61
2023-03-14T06:44:28.825Z,920.64
2023-03-14T06:45:29.450Z,920.64
2023-03-14T06:46:30.296Z,920.65
2023-03-14T06:47:30.952Z,920.62
2023-03-14T06:48:31.527Z,920.62
2023-03-14T06:49:31.725Z,920.59
2023-03-14T06:50:31.890Z,920.6
2023-03-14T06:51:32.549Z,920.55
2023-03-14T06:52:32.900Z,920.52
2023-03-14T06:53:33.561Z,920.58
2023-03-14T06:54:34.197Z,920.57
2023-03-14T06:55:34.524Z,920.63
2023-03-14T06:56:35.443Z,920.63
2023-03-14T06:57:36.381Z,920.67
2023-03-14T06:58:36.727Z,920.68
2023-03-14T06:59:37.072Z,920.7
2023-03-14T07:00:37.989Z,920.7
2023-03-14T07:01:39.002Z,920.68
2023-03-14T07:02:42.870Z,920.7
2023-03-14T07:03:40.001Z,920.66
2023-03-14T07:04:41.084Z,920.69
2023-03-14T07:05:41.301Z,920.65
2023-03-14T07:06:41.524Z,920.61
2023-03-14T07:07:41.747Z,920.61
2023-03-14T07:08:42.794Z,920.59
2023-03-14T07:09:43.049Z,920.59
2023-03-14T07:10:43.523Z,920.64
2023-03-14T07:11:44.457Z,920.72
2023-03-14T07:12:44.676Z,920.7
2023-03-14T07:13:45.184Z,920.69
2023-03-14T07:14:46.271Z,920.6
2023-03-14T07:15:47.302Z,920.59
2023-03-14T07:16:47.561Z,920.61
2023-03-14T07:17:48.062Z,920.65
2023-03-14T07:18:48.170Z,920.59
2023-03-14T07:19:48.659Z,920.57
2023-03-14T07:20:51.339Z,920.55
2023-03-14T07:21:49.945Z,920.55
2023-03-14T07:22:50.880Z,920.58
2023-03-14T07:23:51.189Z,920.56
2023-03-14T07:24:51.725Z,920.54
2023-03-14T07:25:52.269Z,920.57
2023-03-14T07:27:53.301Z,920.55
2023-03-14T07:28:53.862Z,920.6
2023-03-14T07:29:54.845Z,920.6
2023-03-14T07:30:55.112Z,920.62
2023-03-14T07:31:55.367Z,920.65
2023-03-14T07:32:55.920Z,920.64
2023-03-14T07:33:56.883Z,920.64
2023-03-14T07:34:57.882Z,920.66
2023-03-14T07:35:58.127Z,920.67
2023-03-14T07:36:58.707Z,920.64
2023-03-14T07:37:59.628Z,920.68
2023-03-14T07:39:00.279Z,920.71
2023-03-14T07:40:00.813Z,920.77
2023-03-14T07:41:01.378Z,920.68
2023-03-14T07:42:02.034Z,920.66
2023-03-14T07:43:02.956Z,920.6
2023-03-14T07:44:03.178Z,920.64
2023-03-14T07:45:03.434Z,920.61
2023-03-14T07:46:04.378Z,920.51
2023-03-14T07:47:04.851Z,920.49
2023-03-14T07:48:05.174Z,920.48
2023-03-14T07:49:05.612Z,920.5
2023-03-14T07:50:06.555Z,920.5
2023-03-14T07:51:06.793Z,920.47
2023-03-14T07:52:07.747Z,920.47
2023-03-14T07:53:08.317Z,920.43
2023-03-14T07:54:09.286Z,920.42
2023-03-14T07:55:10.086Z,920.45
2023-03-14T07:56:10.683Z,920.5
2023-03-14T07:57:11.047Z,920.48
2023-03-14T07:58:11.259Z,920.5
2023-03-14T07:59:11.392Z,920.48
2023-03-14T08:00:14.210Z,920.46
2023-03-14T08:01:12.453Z,920.48
2023-03-14T08:02:12.685Z,920.51
2023-03-14T08:03:13.564Z,920.47
2023-03-14T08:04:13.721Z,920.5
2023-03-14T08:05:14.261Z,920.52
2023-03-14T08:06:15.201Z,920.55
2023-03-14T08:07:15.698Z,920.52
2023-03-14T08:08:16.622Z,920.56
2023-03-14T08:09:16.988Z,920.6
2023-03-14T08:10:17.228Z,920.59
2023-03-14T08:11:17.939Z,920.61
2023-03-14T08:12:18.877Z,920.6
2023-03-14T08:13:19.575Z,920.64
2023-03-14T08:14:19.673Z,920.62
2023-03-14T08:15:19.900Z,920.68
2023-03-14T08:16:20.435Z,920.69
2023-03-14T08:17:20.962Z,920.64
2023-03-14T08:18:21.265Z,920.67
2023-03-14T08:19:21.448Z,920.7
2023-03-14T08:20:21.953Z,920.7
2023-03-14T08:21:22.163Z,920.67
2023-03-14T08:22:22.836Z,920.66
2023-03-14T08:23:23.485Z,920.65
2023-03-14T08:24:24.213Z,920.72
2023-03-14T08:25:24.488Z,920.71
2023-03-14T08:26:25.115Z,920.68
2023-03-14T08:27:26.059Z,920.69
2023-03-14T08:28:26.262Z,920.66
2023-03-14T08:29:26.680Z,920.66
2023-03-14T08:30:27.843Z,920.69
2023-03-14T08:31:28.164Z,920.7
2023-03-14T08:32:28.549Z,920.75
2023-03-14T08:33:29.619Z,920.78
2023-03-14T08:34:30.700Z,920.81
2023-03-14T08:35:30.990Z,920.83
2023-03-14T08:36:32.148Z,920.83
2023-03-14T08:37:32.350Z,920.9
2023-03-14T08:38:32.875Z,920.95
2023-03-14T08:39:33.206Z,920.94
2023-03-14T08:40:33.814Z,920.98
2023-03-14T08:41:34.488Z,920.99
2023-03-14T08:42:35.451Z,921.03
2023-03-14T08:43:36.459Z,920.97
2023-03-14T08:44:36.779Z,920.95
2023-03-14T08:45:37.057Z,920.97
2023-03-14T08:46:37.317Z,921.06
2023-03-14T08:47:38.284Z,921.12
2023-03-14T08:48:38.539Z,921.09
2023-03-14T08:49:39.075Z,921.27
2023-03-14T08:50:39.656Z,921.21
2023-03-14T08:51:40.188Z,921.03
2023-03-14T08:52:41.204Z,921.01
2023-03-14T08:53:41.501Z,921.08
2023-03-14T08:54:41.764Z,921.18
2023-03-14T08:55:41.895Z,921.15
2023-03-14T08:56:42.510Z,921.03
2023-03-14T08:57:43.043Z,921.06
2023-03-14T08:58:43.694Z,921.01
2023-03-14T08:59:43.872Z,920.97
2023-03-14T09:00:44.595Z,920.97
2023-03-14T09:01:45.031Z,921.01
2023-03-14T09:02:45.288Z,920.88
2023-03-14T09:03:46.012Z,920.87
2023-03-14T09:04:46.214Z,920.81
2023-03-14T09:05:46.861Z,920.83
2023-03-14T09:06:47.812Z,920.77
2023-03-14T09:07:48.754Z,920.75
2023-03-14T09:08:49.001Z,920.78
2023-03-14T09:09:49.314Z,920.71
2023-03-14T09:10:49.831Z,920.63
2023-03-14T09:11:50.414Z,920.81
2023-03-14T09:12:51.077Z,920.84
2023-03-14T09:13:52.053Z,920.82
2023-03-14T09:14:52.573Z,920.78
2023-03-14T09:15:53.086Z,920.75
2023-03-14T09:16:53.939Z,920.73
2023-03-14T09:17:53.894Z,920.77
2023-03-14T09:18:54.933Z,920.78
2023-03-14T09:19:55.613Z,920.87
2023-03-14T09:20:55.877Z,920.8
2023-03-14T09:21:56.817Z,920.75
2023-03-14T09:22:57.323Z,920.75
2023-03-14T09:23:57.541Z,920.77
2023-03-14T09:24:58.510Z,920.74
2023-03-14T09:25:58.989Z,920.65
2023-03-14T09:26:59.398Z,920.66
2023-03-14T09:27:59.619Z,920.69
2023-03-14T09:28:59.862Z,920.67
2023-03-14T09:30:00.608Z,920.74
2023-03-14T09:31:01.539Z,920.69
2023-03-14T09:32:01.895Z,920.72
2023-03-14T09:33:02.390Z,920.74
2023-03-14T09:34:02.637Z,920.72
2023-03-14T09:35:03.552Z,920.72
2023-03-14T09:36:03.815Z,920.73
2023-03-14T09:37:04.888Z,920.71
2023-03-14T09:38:05.379Z,920.72
2023-03-14T09:39:05.921Z,920.73
2023-03-14T09:40:06.992Z,920.74
2023-03-14T09:41:06.933Z,920.75
2023-03-14T09:42:07.556Z,920.74
2023-03-14T09:43:08.514Z,920.78
2023-03-14T09:44:09.178Z,920.77
2023-03-14T09:45:09.422Z,920.86
2023-03-14T09:46:09.682Z,920.81
2023-03-14T09:47:10.286Z,920.81
2023-03-14T09:48:10.510Z,920.8
2023-03-14T09:49:11.015Z,920.77
2023-03-14T09:50:12.067Z,920.75
2023-03-14T09:51:12.700Z,920.77
2023-03-14T09:52:13.684Z,920.75
2023-03-14T09:53:14.353Z,920.75
2023-03-14T09:54:14.854Z,920.85
2023-03-14T09:55:15.126Z,920.71
2023-03-14T09:56:15.862Z,920.73
2023-03-14T09:57:16.553Z,920.64
2023-03-14T09:58:17.248Z,920.67
2023-03-14T09:59:18.220Z,920.68
2023-03-14T10:00:18.411Z,920.71
2023-03-14T10:01:18.959Z,920.73
2023-03-14T10:02:19.831Z,920.67
2023-03-14T10:03:20.778Z,920.73
2023-03-14T10:04:21.355Z,920.66
2023-03-14T10:05:21.985Z,920.66
2023-03-14T10:06:22.530Z,920.73
2023-03-14T10:07:22.742Z,920.73
2023-03-14T10:08:23.593Z,920.74
2023-03-14T10:09:24.557Z,920.73
2023-03-14T10:10:25.404Z,920.74
2023-03-14T10:11:26.118Z,920.83
2023-03-14T10:12:26.742Z,920.86
2023-03-14T10:13:27.195Z,920.8
2023-03-14T10:14:27.438Z,920.95
2023-03-14T10:15:27.704Z,920.93
2023-03-14T10:16:28.656Z,920.9
2023-03-14T10:17:29.162Z,920.89
2023-03-14T10:18:29.883Z,920.99
2023-03-14T10:19:30.570Z,921.04
2023-03-14T10:20:31.108Z,921.04
2023-03-14T10:21:31.861Z,920.88
2023-03-14T10:22:32.071Z,920.97
2023-03-14T10:23:33.051Z,921.03
2023-03-14T10:24:33.505Z,920.97
2023-03-14T10:25:34.114Z,920.99
2023-03-14T10:26:34.717Z,921.02
2023-03-14T10:27:35.287Z,921.07
2023-03-14T10:28:35.800Z,921.06
2023-03-14T10:29:36.765Z,921.01
2023-03-14T10:30:37.687Z,921.06
2023-03-14T10:31:38.467Z,921.06
2023-03-14T10:32:39.087Z,921.03
2023-03-14T10:33:39.331Z,921.06
2023-03-14T10:34:39.598Z,921.04
2023-03-14T10:35:39.879Z,921.05
2023-03-14T10:36:39.981Z,921.09
2023-03-14T10:37:40.228Z,921.13
2023-03-14T10:38:40.746Z,921.1
2023-03-14T10:39:41.732Z,921.11
2023-03-14T10:40:42.552Z,921.12
2023-03-14T10:41:42.925Z,921.11
2023-03-14T10:42:43.831Z,921.09
2023-03-14T10:43:44.253Z,921.07
2023-03-14T10:44:44.481Z,921.01
2023-03-14T10:45:45.534Z,920.92
2023-03-14T10:46:46.389Z,920.94
2023-03-14T10:47:47.462Z,920.96
2023-03-14T10:48:47.873Z,920.96
2023-03-14T10:49:48.236Z,921.01
2023-03-14T10:50:48.658Z,921.03
2023-03-14T10:51:49.214Z,921.07
2023-03-14T10:53:01.883Z,921.06
2023-03-14T10:53:51.173Z,921.03
2023-03-14T10:54:51.712Z,921.03
2023-03-14T10:55:52.049Z,921.11
2023-03-14T10:56:52.317Z,921.05
2023-03-14T10:57:52.982Z,921.05
2023-03-14T10:58:53.654Z,921.07
2023-03-14T10:59:54.682Z,921.02
2023-03-14T11:00:55.400Z,921.04
2023-03-14T11:01:56.025Z,921.04
2023-03-14T11:02:56.658Z,921.03
2023-03-14T11:03:57.205Z,921.04
2023-03-14T11:04:58.364Z,921.05
2023-03-14T11:05:58.712Z,921.11
2023-03-14T11:06:59.901Z,921.07
2023-03-14T11:07:59.958Z,921.07
2023-03-14T11:09:00.173Z,921.08
2023-03-14T11:10:00.469Z,921.11
2023-03-14T11:11:01.508Z,921.08
2023-03-14T11:12:02.063Z,921.04
2023-03-14T11:13:02.429Z,921.03
2023-03-14T11:14:02.684Z,921.02
2023-03-14T11:15:03.218Z,921.01
2023-03-14T11:16:03.479Z,921
2023-03-14T11:17:04.342Z,920.99
2023-03-14T11:18:04.861Z,920.98
2023-03-14T11:19:05.119Z,920.92
2023-03-14T11:20:05.216Z,920.94
2023-03-14T11:21:05.794Z,920.89
2023-03-14T11:22:06.034Z,920.94
2023-03-14T11:23:06.301Z,920.95
2023-03-14T11:24:06.960Z,920.9
2023-03-14T11:25:07.888Z,920.88
2023-03-14T11:26:08.612Z,920.89
2023-03-14T11:27:09.681Z,920.91
2023-03-14T11:28:10.270Z,920.93
2023-03-14T11:29:10.912Z,920.97
2023-03-14T11:30:11.198Z,920.93
2023-03-14T11:31:12.261Z,920.97
2023-03-14T11:32:12.574Z,920.99
2023-03-14T11:33:13.115Z,920.98
2023-03-14T11:34:14.082Z,920.97
2023-03-14T11:35:14.751Z,920.93
2023-03-14T11:36:15.307Z,920.92
2023-03-14T11:37:16.089Z,920.91
2023-03-14T11:38:16.323Z,920.86
2023-03-14T11:39:16.545Z,920.85
2023-03-14T11:40:17.096Z,920.9
2023-03-14T11:41:17.790Z,920.85
2023-03-14T11:42:18.668Z,920.86
2023-03-14T11:43:19.606Z,920.88
2023-03-14T11:44:20.149Z,920.84
2023-03-14T11:45:20.328Z,920.88
2023-03-14T11:46:20.704Z,920.86
2023-03-14T11:47:21.139Z,920.84
2023-03-14T11:48:21.384Z,920.83
2023-03-14T11:49:22.338Z,920.85
2023-03-14T11:50:23.274Z,920.83
2023-03-14T11:51:24.267Z,920.79
2023-03-14T11:52:24.400Z,920.87
2023-03-14T11:53:24.649Z,920.86
2023-03-14T11:54:25.614Z,920.89
2023-03-14T11:55:26.457Z,920.91
2023-03-14T11:56:26.781Z,920.87
2023-03-14T11:57:27.330Z,920.89
2023-03-14T11:58:27.488Z,920.91
2023-03-14T11:59:27.920Z,920.9
2023-03-14T12:00:28.884Z,920.89
2023-03-14T12:01:29.170Z,920.91
2023-03-14T12:02:29.637Z,920.9
2023-03-14T12:03:29.874Z,920.87
2023-03-14T12:04:30.863Z,920.9
2023-03-14T12:05:31.600Z,920.89
2023-03-14T12:06:32.396Z,920.88
2023-03-14T12:07:32.986Z,920.9
2023-03-14T12:08:33.514Z,920.91
2023-03-14T12:09:34.636Z,920.92
2023-03-14T12:10:35.020Z,920.91
2023-03-14T12:11:36.113Z,920.89
2023-03-14T12:12:36.444Z,920.89
2023-03-14T12:13:37.351Z,920.88
2023-03-14T12:14:37.582Z,920.86
2023-03-14T12:15:38.534Z,920.88
2023-03-14T12:16:41.007Z,920.92
2023-03-14T12:17:39.672Z,920.93
2023-03-14T12:18:39.929Z,920.97
2023-03-14T12:19:40.302Z,920.95
2023-03-14T12:20:41.127Z,920.95
2023-03-14T12:21:41.625Z,920.97
2023-03-14T12:22:42.151Z,920.95
2023-03-14T12:23:43.006Z,920.91
2023-03-14T12:24:43.011Z,920.92
2023-03-14T12:25:43.256Z,920.96
2023-03-14T12:26:44.209Z,921
2023-03-14T12:27:44.614Z,920.98
2023-03-14T12:28:44.934Z,921.04
2023-03-14T12:29:45.625Z,921.15
2023-03-14T12:30:46.366Z,921.09
2023-03-14T12:31:47.105Z,921.01
2023-03-14T12:32:47.745Z,920.95
2023-03-14T12:33:47.913Z,921.03
2023-03-14T12:34:48.153Z,921.07
2023-03-14T12:35:48.415Z,921.15
2023-03-14T12:36:48.974Z,921.09
2023-03-14T12:37:49.572Z,921.12
2023-03-14T12:38:49.820Z,921.07
2023-03-14T12:39:50.129Z,920.97